createdAt,value
2023-05-14T00:00:16.764Z,0.00
2023-05-14T00:01:17.127Z,0.00
2023-05-14T00:02:17.602Z,0.00
2023-05-14T00:03:17.935Z,0.00
2023-05-14T00:04:18.356Z,0.00
2023-05-14T00:05:18.654Z,0.00
2023-05-14T00:06:18.944Z,0.00
2023-05-14T00:07:19.312Z,0.00
2023-05-14T00:08:19.681Z,0.00
2023-05-14T00:09:20.068Z,0.00
2023-05-14T00:10:20.512Z,0.00
2023-05-14T00:11:20.776Z,0.00
2023-05-14T00:12:21.158Z,0.00
2023-05-14T00:13:21.490Z,0.00
2023-05-14T00:14:21.907Z,0.00
2023-05-14T00:15:22.214Z,0.00
2023-05-14T00:16:22.650Z,0.00
2023-05-14T00:17:22.945Z,0.00
2023-05-14T00:18:23.348Z,0.00
2023-05-14T00:19:23.721Z,0.00
2023-05-14T00:20:24.241Z,0.00
2023-05-14T00:21:24.414Z,0.00
2023-05-14T00:22:24.775Z,0.00
2023-05-14T00:23:25.149Z,0.00
2023-05-14T00:24:25.530Z,0.00
2023-05-14T00:25:25.982Z,0.00
2023-05-14T00:26:26.230Z,0.00
2023-05-14T00:27:26.592Z,0.00
2023-05-14T00:28:26.956Z,0.00
2023-05-14T00:29:27.314Z,0.00
2023-05-14T00:30:27.736Z,0.00
2023-05-14T00:31:28.130Z,0.00
2023-05-14T00:32:28.438Z,0.00
2023-05-14T00:33:28.777Z,0.00
2023-05-14T00:34:29.184Z,0.00
2023-05-14T00:35:29.544Z,0.00
2023-05-14T00:36:29.891Z,0.00
2023-05-14T00:37:30.268Z,0.00
2023-05-14T00:38:30.616Z,0.00
2023-05-14T00:39:30.960Z,0.00
2023-05-14T00:40:31.294Z,0.00
2023-05-14T00:41:31.657Z,0.00
2023-05-14T00:42:32.003Z,0.00
2023-05-14T00:43:32.350Z,0.00
2023-05-14T00:44:32.754Z,0.00
2023-05-14T00:45:33.063Z,0.00
2023-05-14T00:46:33.512Z,0.00
2023-05-14T00:47:33.864Z,0.00
2023-05-14T00:48:34.159Z,0.00
2023-05-14T00:49:34.545Z,0.00
2023-05-14T00:50:34.848Z,0.00
2023-05-14T00:51:35.200Z,0.00
2023-05-14T00:52:35.590Z,0.00
2023-05-14T00:53:35.885Z,0.00
2023-05-14T00:54:36.277Z,0.00
2023-05-14T00:55:36.620Z,0.00
2023-05-14T00:56:36.960Z,0.00
2023-05-14T00:57:37.317Z,0.00
2023-05-14T00:58:37.662Z,0.00
2023-05-14T00:59:38.057Z,0.00
2023-05-14T01:00:38.377Z,0.00
2023-05-14T01:01:38.720Z,0.00
2023-05-14T01:02:39.133Z,0.00
2023-05-14T01:03:39.527Z,0.00
2023-05-14T01:04:39.770Z,0.00
2023-05-14T01:05:40.125Z,0.00
2023-05-14T01:06:40.494Z,0.00
2023-05-14T01:07:40.835Z,0.00
2023-05-14T01:08:41.217Z,0.00
2023-05-14T01:09:41.582Z,0.00
2023-05-14T01:10:41.891Z,0.00
2023-05-14T01:11:42.248Z,0.00
2023-05-14T01:12:42.576Z,0.00
2023-05-14T01:13:42.912Z,0.00
2023-05-14T01:14:43.339Z,0.00
2023-05-14T01:15:43.634Z,0.00
2023-05-14T01:16:44.044Z,0.00
2023-05-14T01:17:44.382Z,0.00
2023-05-14T01:18:44.680Z,0.00
2023-05-14T01:19:45.041Z,0.00
2023-05-14T01:20:45.380Z,0.00
2023-05-14T01:21:45.732Z,0.00
2023-05-14T01:22:46.094Z,0.00
2023-05-14T01:23:46.453Z,0.00
2023-05-14T01:24:46.827Z,0.00
2023-05-14T01:25:47.186Z,0.00
2023-05-14T01:26:47.589Z,0.00
2023-05-14T01:27:47.877Z,0.00
2023-05-14T01:28:48.239Z,0.00
2023-05-14T01:29:48.613Z,0.00
2023-05-14T01:30:48.984Z,0.00
2023-05-14T01:31:49.343Z,0.00
2023-05-14T01:32:49.802Z,0.00
2023-05-14T01:33:50.029Z,0.00
2023-05-14T01:34:50.392Z,0.00
2023-05-14T01:35:50.766Z,0.00
2023-05-14T01:36:51.131Z,0.00
2023-05-14T01:37:51.459Z,0.00
2023-05-14T01:38:51.863Z,0.00
2023-05-14T01:39:52.168Z,0.00
2023-05-14T01:40:52.546Z,0.00
2023-05-14T01:41:52.906Z,0.00
2023-05-14T01:42:53.266Z,0.00
2023-05-14T01:43:53.616Z,0.00
2023-05-14T01:44:53.957Z,0.00
2023-05-14T01:45:54.460Z,0.00
2023-05-14T01:46:54.664Z,0.00
2023-05-14T01:47:55.041Z,0.00
2023-05-14T01:48:55.425Z,0.00
2023-05-14T01:49:55.797Z,0.00
2023-05-14T01:50:56.088Z,0.00
2023-05-14T01:51:56.441Z,0.00
2023-05-14T01:52:57.010Z,0.00
2023-05-14T01:53:57.150Z,0.00
2023-05-14T01:54:57.506Z,0.00
2023-05-14T01:55:57.855Z,0.00
2023-05-14T01:56:58.189Z,0.00
2023-05-14T01:57:58.636Z,0.00
2023-05-14T01:58:58.885Z,0.00
2023-05-14T01:59:59.257Z,0.00
2023-05-14T02:00:59.638Z,0.00
2023-05-14T02:02:00.022Z,0.00
2023-05-14T02:03:00.337Z,0.00
2023-05-14T02:04:00.661Z,0.00
2023-05-14T02:05:01.014Z,0.00
2023-05-14T02:06:01.331Z,0.00
2023-05-14T02:07:01.679Z,0.00
2023-05-14T02:08:02.056Z,0.00
2023-05-14T02:09:02.417Z,0.00
2023-05-14T02:10:02.797Z,0.00
2023-05-14T02:11:03.120Z,0.00
2023-05-14T02:12:03.467Z,0.00
2023-05-14T02:13:03.861Z,0.00
2023-05-14T02:14:04.221Z,0.00
2023-05-14T02:15:04.563Z,0.00
2023-05-14T02:16:04.971Z,0.00
2023-05-14T02:17:05.298Z,0.00
2023-05-14T02:18:05.680Z,0.00
2023-05-14T02:19:06.057Z,0.00
2023-05-14T02:20:06.402Z,0.00
2023-05-14T02:21:06.800Z,0.00
2023-05-14T02:22:07.140Z,0.00
2023-05-14T02:23:07.488Z,0.00
2023-05-14T02:24:07.876Z,0.00
2023-05-14T02:25:08.250Z,0.00
2023-05-14T02:26:08.580Z,0.00
2023-05-14T02:27:08.956Z,0.00
2023-05-14T02:28:09.334Z,0.00
2023-05-14T02:29:09.662Z,0.00
2023-05-14T02:30:10.135Z,0.00
2023-05-14T02:31:10.495Z,0.00
2023-05-14T02:32:10.879Z,0.00
2023-05-14T02:33:11.289Z,0.00
2023-05-14T02:34:11.534Z,0.00
2023-05-14T02:35:11.943Z,0.00
2023-05-14T02:36:12.252Z,0.00
2023-05-14T02:37:12.530Z,1.00
2023-05-14T02:38:12.758Z,1.00
2023-05-14T02:39:13.060Z,1.00
2023-05-14T02:40:13.376Z,1.00
2023-05-14T02:41:13.619Z,2.00
2023-05-14T02:42:13.923Z,2.00
2023-05-14T02:43:14.336Z,0.00
2023-05-14T02:44:14.573Z,2.00
2023-05-14T02:45:14.869Z,2.00
2023-05-14T02:46:15.198Z,1.00
2023-05-14T02:47:15.394Z,3.00
2023-05-14T02:48:15.672Z,2.00
2023-05-14T02:49:15.990Z,4.00
2023-05-14T02:50:16.322Z,5.00
2023-05-14T02:51:16.511Z,4.00
2023-05-14T02:52:16.797Z,6.00
2023-05-14T02:53:17.139Z,8.00
2023-05-14T02:54:17.427Z,2.00
2023-05-14T02:55:17.561Z,9.00
2023-05-14T02:56:17.796Z,8.00
2023-05-14T02:57:18.131Z,11.00
2023-05-14T02:58:18.395Z,11.00
2023-05-14T02:59:18.564Z,14.00
2023-05-14T03:00:18.883Z,13.00
2023-05-14T03:01:19.211Z,18.00
2023-05-14T03:02:19.496Z,19.00
2023-05-14T03:03:19.736Z,24.00
2023-05-14T03:04:20.002Z,25.00
2023-05-14T03:05:20.273Z,29.00
2023-05-14T03:06:20.567Z,31.00
2023-05-14T03:07:20.869Z,37.00
2023-05-14T03:08:21.141Z,38.00
2023-05-14T03:09:21.422Z,47.00
2023-05-14T03:10:22.041Z,45.00
2023-05-14T03:11:21.892Z,48.00
2023-05-14T03:12:22.148Z,48.00
2023-05-14T03:13:22.322Z,55.00
2023-05-14T03:14:22.609Z,71.00
2023-05-14T03:15:22.823Z,79.00
2023-05-14T03:16:23.090Z,87.00
2023-05-14T03:17:23.354Z,88.00
2023-05-14T03:18:23.605Z,99.00
2023-05-14T03:19:23.952Z,114.00
2023-05-14T03:20:24.362Z,127.00
2023-05-14T03:21:24.243Z,138.00
2023-05-14T03:22:24.568Z,148.00
2023-05-14T03:23:24.713Z,170.00
2023-05-14T03:24:24.901Z,174.00
2023-05-14T03:25:25.071Z,192.00
2023-05-14T03:26:25.248Z,202.00
2023-05-14T03:27:25.417Z,223.00
2023-05-14T03:28:25.595Z,233.00
2023-05-14T03:29:25.774Z,258.00
2023-05-14T03:30:26.242Z,277.00
2023-05-14T03:31:26.284Z,291.00
2023-05-14T03:32:26.306Z,313.00
2023-05-14T03:33:26.465Z,335.00
2023-05-14T03:34:26.761Z,353.00
2023-05-14T03:35:26.930Z,369.00
2023-05-14T03:36:27.070Z,396.00
2023-05-14T03:37:27.250Z,422.00
2023-05-14T03:38:27.448Z,443.00
2023-05-14T03:39:27.592Z,472.00
2023-05-14T03:40:27.787Z,495.00
2023-05-14T03:41:27.922Z,526.00
2023-05-14T03:42:28.143Z,555.00
2023-05-14T03:43:28.269Z,593.00
2023-05-14T03:44:28.435Z,626.00
2023-05-14T03:45:28.666Z,662.00
2023-05-14T03:46:28.776Z,701.00
2023-05-14T03:47:28.976Z,738.00
2023-05-14T03:48:29.192Z,775.00
2023-05-14T03:49:29.297Z,812.00
2023-05-14T03:50:29.585Z,859.00
2023-05-14T03:51:29.654Z,908.00
2023-05-14T03:52:29.976Z,954.00
2023-05-14T03:53:30.092Z,996.00
2023-05-14T03:54:30.269Z,1040.00
2023-05-14T03:55:30.618Z,1090.00
2023-05-14T03:56:30.872Z,1139.00
2023-05-14T03:57:31.036Z,1172.00
2023-05-14T03:58:31.201Z,1228.00
2023-05-14T03:59:31.372Z,1265.00
2023-05-14T04:00:31.599Z,1310.00
2023-05-14T04:01:31.742Z,1348.00
2023-05-14T04:02:32.023Z,1391.00
2023-05-14T04:03:32.465Z,1430.00
2023-05-14T04:04:32.453Z,1469.00
2023-05-14T04:05:32.720Z,1506.00
2023-05-14T04:06:32.885Z,1540.00
2023-05-14T04:07:33.182Z,1574.00
2023-05-14T04:08:33.357Z,1610.00
2023-05-14T04:09:33.656Z,1644.00
2023-05-14T04:10:33.867Z,1688.00
2023-05-14T04:11:34.039Z,1723.00
2023-05-14T04:12:34.358Z,1766.00
2023-05-14T04:13:34.553Z,1820.00
2023-05-14T04:14:34.706Z,1873.00
2023-05-14T04:15:35.039Z,1930.00
2023-05-14T04:16:35.243Z,1968.00
2023-05-14T04:17:35.440Z,2022.00
2023-05-14T04:18:35.629Z,2101.00
2023-05-14T04:19:35.771Z,2207.00
2023-05-14T04:20:35.998Z,2277.00
2023-05-14T04:21:36.164Z,2336.00
2023-05-14T04:22:36.444Z,2376.00
2023-05-14T04:23:36.551Z,2426.00
2023-05-14T04:24:36.711Z,2475.00
2023-05-14T04:25:36.934Z,2518.00
2023-05-14T04:26:37.109Z,2571.00
2023-05-14T04:27:37.268Z,2650.00
2023-05-14T04:28:37.461Z,2721.00
2023-05-14T04:29:37.658Z,2776.00
2023-05-14T04:30:37.883Z,2833.00
2023-05-14T04:31:38.061Z,2911.00
2023-05-14T04:32:38.277Z,2959.00
2023-05-14T04:33:38.386Z,3010.00
2023-05-14T04:34:38.568Z,3110.00
2023-05-14T04:35:38.761Z,3180.00
2023-05-14T04:36:38.924Z,3225.00
2023-05-14T04:37:39.129Z,3282.00
2023-05-14T04:38:39.315Z,3377.00
2023-05-14T04:39:39.520Z,3426.00
2023-05-14T04:40:39.720Z,3409.00
2023-05-14T04:41:39.915Z,3421.00
2023-05-14T04:42:40.068Z,3442.00
2023-05-14T04:43:40.274Z,3470.00
2023-05-14T04:44:40.504Z,3538.00
2023-05-14T04:45:40.716Z,3591.00
2023-05-14T04:46:40.840Z,3692.00
2023-05-14T04:47:41.010Z,3745.00
2023-05-14T04:48:41.184Z,3791.00
2023-05-14T04:49:41.421Z,3821.00
2023-05-14T04:50:41.590Z,3863.00
2023-05-14T04:51:41.730Z,3936.00
2023-05-14T04:52:41.922Z,4020.00
2023-05-14T04:53:42.127Z,4092.00
2023-05-14T04:54:42.331Z,4139.00
2023-05-14T04:55:42.496Z,4214.00
2023-05-14T04:56:42.653Z,4195.00
2023-05-14T04:57:42.856Z,4244.00
2023-05-14T04:58:43.056Z,4280.00
2023-05-14T04:59:43.405Z,4351.00
2023-05-14T05:00:43.452Z,4391.00
2023-05-14T05:01:43.671Z,4558.00
2023-05-14T05:02:43.879Z,4722.00
2023-05-14T05:03:44.042Z,4816.00
2023-05-14T05:04:44.192Z,4823.00
2023-05-14T05:05:44.384Z,4837.00
2023-05-14T05:06:44.549Z,4945.00
2023-05-14T05:07:44.741Z,4927.00
2023-05-14T05:08:44.937Z,5105.00
2023-05-14T05:09:45.134Z,5194.00
2023-05-14T05:10:45.385Z,5249.00
2023-05-14T05:11:45.513Z,5271.00
2023-05-14T05:12:45.696Z,5302.00
2023-05-14T05:13:45.911Z,5342.00
2023-05-14T05:14:46.074Z,5392.00
2023-05-14T05:15:46.323Z,5381.00
2023-05-14T05:16:46.453Z,5385.00
2023-05-14T05:17:46.723Z,5394.00
2023-05-14T05:18:46.897Z,5162.00
2023-05-14T05:19:47.090Z,4738.00
2023-05-14T05:20:47.244Z,4554.00
2023-05-14T05:21:47.475Z,4542.00
2023-05-14T05:22:47.579Z,4533.00
2023-05-14T05:23:47.760Z,4549.00
2023-05-14T05:24:49.754Z,4602.00
2023-05-14T05:25:48.129Z,4605.00
2023-05-14T05:26:48.284Z,4663.00
2023-05-14T05:27:48.498Z,4704.00
2023-05-14T05:28:48.659Z,4740.00
2023-05-14T05:29:48.894Z,4765.00
2023-05-14T05:30:49.065Z,4789.00
2023-05-14T05:31:49.378Z,4803.00
2023-05-14T05:32:49.429Z,4845.00
2023-05-14T05:33:49.591Z,4899.00
2023-05-14T05:34:49.791Z,4946.00
2023-05-14T05:35:50.020Z,4966.00
2023-05-14T05:36:50.233Z,5028.00
2023-05-14T05:37:50.354Z,5104.00
2023-05-14T05:38:50.534Z,5162.00
2023-05-14T05:39:50.751Z,5221.00
2023-05-14T05:40:50.981Z,5268.00
2023-05-14T05:41:51.131Z,5299.00
2023-05-14T05:42:51.291Z,5340.00
2023-05-14T05:43:51.526Z,5402.00
2023-05-14T05:44:51.663Z,5421.00
2023-05-14T05:45:51.893Z,5455.00
2023-05-14T05:46:52.078Z,5487.00
2023-05-14T05:47:52.262Z,5550.00
2023-05-14T05:48:52.442Z,5625.00
2023-05-14T05:49:52.634Z,5680.00
2023-05-14T05:50:52.868Z,5699.00
2023-05-14T05:51:52.986Z,5708.00
2023-05-14T05:52:53.185Z,5676.00
2023-05-14T05:53:53.381Z,5687.00
2023-05-14T05:54:53.678Z,5652.00
2023-05-14T05:55:53.792Z,5628.00
2023-05-14T05:56:53.958Z,5590.00
2023-05-14T05:57:54.180Z,5544.00
2023-05-14T05:58:54.319Z,5505.00
2023-05-14T05:59:54.493Z,5478.00
2023-05-14T06:00:54.674Z,5488.00
2023-05-14T06:01:54.905Z,5494.00
2023-05-14T06:02:55.077Z,5498.00
2023-05-14T06:03:55.222Z,5520.00
2023-05-14T06:04:55.478Z,5526.00
2023-05-14T06:05:55.625Z,5530.00
2023-05-14T06:06:55.778Z,5565.00
2023-05-14T06:07:55.986Z,5575.00
2023-05-14T06:08:56.187Z,5595.00
2023-05-14T06:09:56.370Z,5612.00
2023-05-14T06:10:56.583Z,5616.00
2023-05-14T06:11:56.730Z,5651.00
2023-05-14T06:12:56.927Z,5678.00
2023-05-14T06:13:57.118Z,5700.00
2023-05-14T06:14:57.334Z,5712.00
2023-05-14T06:15:57.525Z,5739.00
2023-05-14T06:16:57.764Z,5778.00
2023-05-14T06:17:57.896Z,5804.00
2023-05-14T06:18:58.063Z,5792.00
2023-05-14T06:19:58.246Z,5827.00
2023-05-14T06:20:58.440Z,5855.00
2023-05-14T06:21:58.599Z,5915.00
2023-05-14T06:22:58.798Z,5928.00
2023-05-14T06:23:58.963Z,5983.00
2023-05-14T06:24:59.156Z,5995.00
2023-05-14T06:25:59.371Z,5993.00
2023-05-14T06:26:59.527Z,5993.00
2023-05-14T06:27:59.731Z,5981.00
2023-05-14T06:28:59.912Z,5976.00
2023-05-14T06:30:00.156Z,5972.00
2023-05-14T06:31:00.312Z,6015.00
2023-05-14T06:32:00.629Z,6076.00
2023-05-14T06:33:00.682Z,6141.00
2023-05-14T06:34:00.828Z,6239.00
2023-05-14T06:35:01.035Z,6315.00
2023-05-14T06:36:01.343Z,6414.00
2023-05-14T06:37:01.399Z,6531.00
2023-05-14T06:38:01.594Z,6590.00
2023-05-14T06:39:01.775Z,6662.00
2023-05-14T06:40:01.996Z,6701.00
2023-05-14T06:41:02.226Z,6715.00
2023-05-14T06:42:02.331Z,6713.00
2023-05-14T06:43:02.531Z,6786.00
2023-05-14T06:44:02.691Z,6842.00
2023-05-14T06:45:02.891Z,6877.00
2023-05-14T06:46:03.125Z,6904.00
2023-05-14T06:47:03.269Z,6922.00
2023-05-14T06:48:03.513Z,6957.00
2023-05-14T06:49:03.669Z,6989.00
2023-05-14T06:50:03.818Z,7043.00
2023-05-14T06:51:04.041Z,7066.00
2023-05-14T06:52:04.205Z,7098.00
2023-05-14T06:53:04.403Z,7101.00
2023-05-14T06:54:04.578Z,7148.00
2023-05-14T06:55:04.783Z,7241.00
2023-05-14T06:56:04.929Z,7262.00
2023-05-14T06:57:05.110Z,7357.00
2023-05-14T06:58:05.318Z,7437.00
2023-05-14T06:59:05.504Z,7487.00
2023-05-14T07:00:05.671Z,7523.00
2023-05-14T07:01:05.907Z,7574.00
2023-05-14T07:02:06.057Z,7562.00
2023-05-14T07:03:06.312Z,7512.00
2023-05-14T07:04:06.485Z,7631.00
2023-05-14T07:05:06.629Z,7598.00
2023-05-14T07:06:06.843Z,7598.00
2023-05-14T07:07:07.007Z,7648.00
2023-05-14T07:08:07.191Z,7618.00
2023-05-14T07:09:07.368Z,7575.00
2023-05-14T07:10:07.543Z,7461.00
2023-05-14T07:11:07.759Z,7335.00
2023-05-14T07:12:07.896Z,7287.00
2023-05-14T07:13:08.070Z,7095.00
2023-05-14T07:14:08.256Z,6883.00
2023-05-14T07:15:08.419Z,7108.00
2023-05-14T07:16:08.641Z,7136.00
2023-05-14T07:17:08.804Z,7147.00
2023-05-14T07:18:09.055Z,7246.00
2023-05-14T07:19:09.209Z,7216.00
2023-05-14T07:20:09.381Z,7115.00
2023-05-14T07:21:09.581Z,7146.00
2023-05-14T07:22:09.747Z,7045.00
2023-05-14T07:23:09.922Z,6995.00
2023-05-14T07:24:10.138Z,7020.00
2023-05-14T07:25:10.310Z,7130.00
2023-05-14T07:26:10.532Z,7372.00
2023-05-14T07:27:10.662Z,7492.00
2023-05-14T07:28:10.849Z,7574.00
2023-05-14T07:29:11.025Z,7660.00
2023-05-14T07:30:11.199Z,7629.00
2023-05-14T07:31:11.433Z,7689.00
2023-05-14T07:32:13.967Z,7814.00
2023-05-14T07:33:11.791Z,7611.00
2023-05-14T07:34:11.972Z,7504.00
2023-05-14T07:35:12.148Z,7689.00
2023-05-14T07:36:12.345Z,7642.00
2023-05-14T07:37:12.532Z,7754.00
2023-05-14T07:38:12.716Z,7903.00
2023-05-14T07:39:12.886Z,8051.00
2023-05-14T07:40:13.071Z,8199.00
2023-05-14T07:41:13.267Z,8189.00
2023-05-14T07:42:21.801Z,8322.00
2023-05-14T07:43:13.644Z,8484.00
2023-05-14T07:44:13.854Z,8457.00
2023-05-14T07:45:13.998Z,7960.00
2023-05-14T07:46:14.239Z,8605.00
2023-05-14T07:47:14.439Z,8496.00
2023-05-14T07:48:14.798Z,8266.00
2023-05-14T07:49:14.774Z,8231.00
2023-05-14T07:50:14.967Z,8125.00
2023-05-14T07:51:15.186Z,8053.00
2023-05-14T07:52:15.322Z,8237.00
2023-05-14T07:53:15.501Z,8141.00
2023-05-14T07:54:15.686Z,8015.00
2023-05-14T07:55:15.857Z,7997.00
2023-05-14T07:56:16.094Z,7881.00
2023-05-14T07:57:16.262Z,7675.00
2023-05-14T07:58:16.433Z,7626.00
2023-05-14T07:59:16.608Z,7599.00
2023-05-14T08:00:16.820Z,7800.00
2023-05-14T08:01:16.990Z,7847.00
2023-05-14T08:02:17.446Z,7881.00
2023-05-14T08:03:17.429Z,7964.00
2023-05-14T08:04:17.613Z,8104.00
2023-05-14T08:05:17.735Z,7998.00
2023-05-14T08:06:17.938Z,8112.00
2023-05-14T08:07:18.120Z,8309.00
2023-05-14T08:08:18.299Z,8594.00
2023-05-14T08:09:18.530Z,8818.00
2023-05-14T08:10:18.693Z,9053.00
2023-05-14T08:11:18.996Z,9305.00
2023-05-14T08:12:19.091Z,9576.00
2023-05-14T08:13:19.269Z,9824.00
2023-05-14T08:14:19.476Z,10093.00
2023-05-14T08:15:19.663Z,10402.00
2023-05-14T08:16:19.910Z,10551.00
2023-05-14T08:17:20.033Z,10734.00
2023-05-14T08:18:20.226Z,10996.00
2023-05-14T08:19:20.430Z,10976.00
2023-05-14T08:20:20.635Z,11026.00
2023-05-14T08:21:20.837Z,11176.00
2023-05-14T08:22:21.018Z,11143.00
2023-05-14T08:23:21.218Z,11224.00
2023-05-14T08:24:21.403Z,11138.00
2023-05-14T08:25:21.632Z,11347.00
2023-05-14T08:26:21.832Z,11079.00
2023-05-14T08:27:21.993Z,10853.00
2023-05-14T08:28:22.199Z,10749.00
2023-05-14T08:29:22.424Z,10875.00
2023-05-14T08:30:23.061Z,11172.00
2023-05-14T08:31:22.920Z,11486.00
2023-05-14T08:32:24.150Z,11708.00
2023-05-14T08:33:23.180Z,11822.00
2023-05-14T08:34:23.381Z,11906.00
2023-05-14T08:35:23.586Z,11810.00
2023-05-14T08:36:23.795Z,11554.00
2023-05-14T08:37:24.005Z,11706.00
2023-05-14T08:38:24.196Z,12194.00
2023-05-14T08:39:24.392Z,12069.00
2023-05-14T08:40:24.773Z,11830.00
2023-05-14T08:41:24.783Z,11760.00
2023-05-14T08:42:24.980Z,11631.00
2023-05-14T08:43:25.163Z,11530.00
2023-05-14T08:44:25.352Z,11384.00
2023-05-14T08:45:25.554Z,11696.00
2023-05-14T08:46:25.778Z,11838.00
2023-05-14T08:47:26.003Z,11430.00
2023-05-14T08:48:26.247Z,10918.00
2023-05-14T08:49:26.343Z,11099.00
2023-05-14T08:50:26.687Z,10452.00
2023-05-14T08:51:26.783Z,9256.00
2023-05-14T08:52:26.931Z,9666.00
2023-05-14T08:53:27.114Z,10362.00
2023-05-14T08:54:27.316Z,10232.00
2023-05-14T08:55:27.502Z,10656.00
2023-05-14T08:56:27.725Z,10740.00
2023-05-14T08:57:27.894Z,10927.00
2023-05-14T08:58:28.076Z,10833.00
2023-05-14T08:59:28.283Z,10670.00
2023-05-14T09:00:28.528Z,10650.00
2023-05-14T09:01:28.781Z,10498.00
2023-05-14T09:02:28.882Z,10476.00
2023-05-14T09:03:29.203Z,10715.00
2023-05-14T09:04:29.244Z,10520.00
2023-05-14T09:05:29.451Z,10758.00
2023-05-14T09:06:29.682Z,10702.00
2023-05-14T09:07:29.849Z,10514.00
2023-05-14T09:08:30.065Z,10814.00
2023-05-14T09:09:30.242Z,12137.00
2023-05-14T09:10:30.462Z,15205.00
2023-05-14T09:11:30.663Z,17094.00
2023-05-14T09:12:30.836Z,15837.00
2023-05-14T09:13:31.029Z,17536.00
2023-05-14T09:14:31.199Z,14620.00
2023-05-14T09:15:31.422Z,13518.00
2023-05-14T09:16:31.632Z,16763.00
2023-05-14T09:17:31.828Z,18298.00
2023-05-14T09:18:32.028Z,19280.00
2023-05-14T09:19:32.164Z,19768.00
2023-05-14T09:20:32.386Z,14665.00
2023-05-14T09:21:33.603Z,14258.00
2023-05-14T09:22:32.759Z,14550.00
2023-05-14T09:23:33.011Z,16470.00
2023-05-14T09:24:33.206Z,17709.00
2023-05-14T09:25:33.387Z,73698.00
2023-05-14T09:26:33.623Z,79605.00
2023-05-14T09:27:33.871Z,8347.00
2023-05-14T09:28:34.003Z,29755.00
2023-05-14T09:29:34.249Z,23893.00
2023-05-14T09:30:34.420Z,75836.00
2023-05-14T09:31:34.655Z,76041.00
2023-05-14T09:32:34.843Z,79757.00
2023-05-14T09:33:35.027Z,79226.00
2023-05-14T09:34:35.266Z,14927.00
2023-05-14T09:35:35.433Z,15053.00
2023-05-14T09:36:35.647Z,13102.00
2023-05-14T09:37:35.838Z,11777.00
2023-05-14T09:38:36.046Z,17390.00
2023-05-14T09:39:36.283Z,83129.00
2023-05-14T09:40:36.468Z,30344.00
2023-05-14T09:41:36.727Z,14605.00
2023-05-14T09:42:36.866Z,16185.00
2023-05-14T09:43:37.079Z,24267.00
2023-05-14T09:44:37.317Z,77248.00
2023-05-14T09:45:37.503Z,78052.00
2023-05-14T09:46:37.726Z,15487.00
2023-05-14T09:47:37.968Z,12263.00
2023-05-14T09:48:38.178Z,12263.00
2023-05-14T09:49:38.299Z,12827.00
2023-05-14T09:50:38.493Z,14755.00
2023-05-14T09:51:38.730Z,25234.00
2023-05-14T09:52:38.916Z,18664.00
2023-05-14T09:53:39.113Z,14245.00
2023-05-14T09:54:39.362Z,12600.00
2023-05-14T09:55:39.523Z,10750.00
2023-05-14T09:56:39.735Z,12379.00
2023-05-14T09:57:39.942Z,18673.00
2023-05-14T09:58:40.153Z,78916.00
2023-05-14T09:59:40.363Z,26527.00
2023-05-14T10:00:40.568Z,30792.00
2023-05-14T10:01:40.829Z,30050.00
2023-05-14T10:02:41.152Z,79424.00
2023-05-14T10:03:41.188Z,81643.00
2023-05-14T10:04:41.447Z,82013.00
2023-05-14T10:05:41.575Z,76686.00
2023-05-14T10:06:41.847Z,77726.00
2023-05-14T10:07:42.019Z,81292.00
2023-05-14T10:08:42.175Z,82772.00
2023-05-14T10:09:42.396Z,13381.00
2023-05-14T10:10:42.589Z,12761.00
2023-05-14T10:11:42.806Z,14401.00
2023-05-14T10:12:42.982Z,79097.00
2023-05-14T10:13:43.199Z,78815.00
2023-05-14T10:14:43.414Z,79116.00
2023-05-14T10:15:43.619Z,23547.00
2023-05-14T10:16:43.865Z,78725.00
2023-05-14T10:17:44.113Z,30882.00
2023-05-14T10:18:44.260Z,26330.00
2023-05-14T10:19:44.448Z,75896.00
2023-05-14T10:20:44.650Z,26312.00
2023-05-14T10:21:44.851Z,22286.00
2023-05-14T10:22:45.036Z,76256.00
2023-05-14T10:23:45.235Z,79056.00
2023-05-14T10:24:45.460Z,80906.00
2023-05-14T10:25:45.640Z,16236.00
2023-05-14T10:26:45.866Z,17615.00
2023-05-14T10:27:46.058Z,78779.00
2023-05-14T10:28:46.232Z,78797.00
2023-05-14T10:29:46.424Z,14272.00
2023-05-14T10:30:46.737Z,14232.00
2023-05-14T10:31:47.082Z,83363.00
2023-05-14T10:32:47.041Z,78754.00
2023-05-14T10:33:47.181Z,15681.00
2023-05-14T10:34:47.374Z,15195.00
2023-05-14T10:35:47.588Z,16121.00
2023-05-14T10:36:47.802Z,18024.00
2023-05-14T10:37:48.015Z,77852.00
2023-05-14T10:38:48.225Z,83353.00
2023-05-14T10:39:48.452Z,80121.00
2023-05-14T10:40:48.635Z,81395.00
2023-05-14T10:41:48.852Z,77145.00
2023-05-14T10:42:49.078Z,79383.00
2023-05-14T10:43:49.293Z,80165.00
2023-05-14T10:44:49.539Z,76586.00
2023-05-14T10:45:49.713Z,75816.00
2023-05-14T10:46:49.957Z,21631.00
2023-05-14T10:47:50.165Z,77356.00
2023-05-14T10:48:50.325Z,75826.00
2023-05-14T10:49:50.539Z,75843.00
2023-05-14T10:50:50.755Z,75739.00
2023-05-14T10:51:50.897Z,75899.00
2023-05-14T10:52:51.127Z,78093.00
2023-05-14T10:53:51.307Z,77965.00
2023-05-14T10:54:51.537Z,79592.00
2023-05-14T10:55:51.683Z,79233.00
2023-05-14T10:56:51.871Z,80888.00
2023-05-14T10:57:52.051Z,80210.00
2023-05-14T10:58:52.254Z,81340.00
2023-05-14T10:59:52.458Z,17161.00
2023-05-14T11:00:52.597Z,20387.00
2023-05-14T11:01:52.862Z,17608.00
2023-05-14T11:02:53.083Z,78375.00
2023-05-14T11:03:53.336Z,75941.00
2023-05-14T11:04:53.445Z,75920.00
2023-05-14T11:05:53.641Z,75852.00
2023-05-14T11:06:53.862Z,75754.00
2023-05-14T11:07:54.002Z,18424.00
2023-05-14T11:08:54.213Z,24731.00
2023-05-14T11:09:54.492Z,76015.00
2023-05-14T11:10:54.626Z,76195.00
2023-05-14T11:11:54.848Z,16065.00
2023-05-14T11:12:55.096Z,13084.00
2023-05-14T11:13:55.281Z,12973.00
2023-05-14T11:14:55.502Z,17509.00
2023-05-14T11:15:55.710Z,77924.00
2023-05-14T11:16:55.935Z,77670.00
2023-05-14T11:17:56.124Z,83374.00
2023-05-14T11:18:56.277Z,32399.00
2023-05-14T11:19:56.493Z,18858.00
2023-05-14T11:20:56.739Z,15476.00
2023-05-14T11:21:56.904Z,14641.00
2023-05-14T11:22:57.109Z,16736.00
2023-05-14T11:23:57.331Z,12338.00
2023-05-14T11:24:57.568Z,11368.00
2023-05-14T11:25:57.733Z,10310.00
2023-05-14T11:26:57.897Z,9722.00
2023-05-14T11:27:58.090Z,9269.00
2023-05-14T11:28:58.262Z,8871.00
2023-05-14T11:29:58.471Z,8605.00
2023-05-14T11:30:58.648Z,8232.00
2023-05-14T11:31:58.860Z,7852.00
2023-05-14T11:33:01.764Z,7689.00
2023-05-14T11:33:59.237Z,7526.00
2023-05-14T11:34:59.449Z,7461.00
2023-05-14T11:35:59.593Z,7751.00
2023-05-14T11:36:59.778Z,8246.00
2023-05-14T11:37:59.974Z,8745.00
2023-05-14T11:39:00.191Z,8903.00
2023-05-14T11:40:00.358Z,8963.00
2023-05-14T11:41:00.550Z,9022.00
2023-05-14T11:42:00.749Z,9270.00
2023-05-14T11:43:00.924Z,9411.00
2023-05-14T11:44:01.114Z,9720.00
2023-05-14T11:45:01.333Z,10129.00
2023-05-14T11:46:01.529Z,10566.00
2023-05-14T11:47:01.699Z,11071.00
2023-05-14T11:48:01.954Z,11226.00
2023-05-14T11:49:02.081Z,11177.00
2023-05-14T11:50:02.304Z,10975.00
2023-05-14T11:51:02.455Z,10824.00
2023-05-14T11:52:02.661Z,10615.00
2023-05-14T11:53:02.893Z,10342.00
2023-05-14T11:54:03.076Z,10360.00
2023-05-14T11:55:03.355Z,10624.00
2023-05-14T11:56:03.486Z,10704.00
2023-05-14T11:57:03.690Z,10815.00
2023-05-14T11:58:03.890Z,11011.00
2023-05-14T11:59:04.119Z,11165.00
2023-05-14T12:00:04.443Z,11459.00
2023-05-14T12:01:04.500Z,11958.00
2023-05-14T12:02:04.753Z,12535.00
2023-05-14T12:03:04.981Z,13048.00
2023-05-14T12:04:05.190Z,13707.00
2023-05-14T12:05:05.306Z,14312.00
2023-05-14T12:06:05.490Z,14978.00
2023-05-14T12:07:05.653Z,15461.00
2023-05-14T12:08:05.869Z,15858.00
2023-05-14T12:09:06.090Z,16280.00
2023-05-14T12:10:06.320Z,16554.00
2023-05-14T12:11:06.501Z,16761.00
2023-05-14T12:12:06.708Z,16751.00
2023-05-14T12:13:06.907Z,16238.00
2023-05-14T12:14:07.098Z,16895.00
2023-05-14T12:15:07.321Z,18564.00
2023-05-14T12:16:07.530Z,24711.00
2023-05-14T12:17:07.699Z,30814.00
2023-05-14T12:19:08.150Z,82516.00
2023-05-14T12:20:08.331Z,82397.00
2023-05-14T12:21:08.577Z,15940.00